sensor_id;sensor_type;location;lat;lon;timestamp;P1;durP1;ratioP1;P2;durP2;ratioP2
43793;SDS011;29414;44.798;20.366;2022-12-18T00:03:46;34.77;;;25.13;;
43793;SDS011;29414;44.798;20.366;2022-12-18T00:07:46;35.37;;;24.67;;
43793;SDS011;29414;44.798;20.366;2022-12-18T00:11:46;34.00;;;23.80;;
43793;SDS011;29414;44.798;20.366;2022-12-18T00:15:47;31.80;;;23.10;;
43793;SDS011;29414;44.798;20.366;2022-12-18T00:19:47;32.20;;;23.07;;
43793;SDS011;29414;44.798;20.366;2022-12-18T00:23:48;34.20;;;22.63;;
43793;SDS011;29414;44.798;20.366;2022-12-18T00:27:48;31.80;;;21.70;;
43793;SDS011;29414;44.798;20.366;2022-12-18T00:31:48;32.50;;;21.47;;
43793;SDS011;29414;44.798;20.366;2022-12-18T00:35:49;32.07;;;21.50;;
43793;SDS011;29414;44.798;20.366;2022-12-18T00:39:49;33.60;;;22.55;;
43793;SDS011;29414;44.798;20.366;2022-12-18T00:43:49;30.70;;;22.13;;
43793;SDS011;29414;44.798;20.366;2022-12-18T00:47:49;31.63;;;21.23;;
43793;SDS011;29414;44.798;20.366;2022-12-18T00:51:50;33.43;;;22.97;;
43793;SDS011;29414;44.798;20.366;2022-12-18T00:55:50;31.97;;;22.63;;
43793;SDS011;29414;44.798;20.366;2022-12-18T00:59:50;31.27;;;21.30;;
43793;SDS011;29414;44.798;20.366;2022-12-18T01:03:51;30.20;;;21.33;;
43793;SDS011;29414;44.798;20.366;2022-12-18T01:07:51;33.67;;;22.37;;
43793;SDS011;29414;44.798;20.366;2022-12-18T01:11:51;32.53;;;21.30;;
43793;SDS011;29414;44.798;20.366;2022-12-18T01:15:51;33.10;;;21.70;;
43793;SDS011;29414;44.798;20.366;2022-12-18T01:19:52;27.83;;;20.03;;
43793;SDS011;29414;44.798;20.366;2022-12-18T01:23:53;34.27;;;23.30;;
43793;SDS011;29414;44.798;20.366;2022-12-18T01:27:53;31.30;;;21.60;;
43793;SDS011;29414;44.798;20.366;2022-12-18T01:31:57;33.33;;;22.53;;
43793;SDS011;29414;44.798;20.366;2022-12-18T01:35:57;32.97;;;23.23;;
43793;SDS011;29414;44.798;20.366;2022-12-18T01:39:57;31.83;;;22.93;;
43793;SDS011;29414;44.798;20.366;2022-12-18T01:43:58;31.97;;;22.90;;
43793;SDS011;29414;44.798;20.366;2022-12-18T01:48:07;33.17;;;22.80;;
43793;SDS011;29414;44.798;20.366;2022-12-18T01:52:08;35.37;;;22.97;;
43793;SDS011;29414;44.798;20.366;2022-12-18T01:56:11;31.77;;;23.03;;
43793;SDS011;29414;44.798;20.366;2022-12-18T02:00:16;34.87;;;23.53;;
43793;SDS011;29414;44.798;20.366;2022-12-18T02:04:21;31.00;;;22.47;;
43793;SDS011;29414;44.798;20.366;2022-12-18T02:08:26;33.63;;;23.37;;
43793;SDS011;29414;44.798;20.366;2022-12-18T02:20:47;33.80;;;22.83;;
43793;SDS011;29414;44.798;20.366;2022-12-18T02:28:56;34.13;;;23.23;;
43793;SDS011;29414;44.798;20.366;2022-12-18T02:32:58;33.20;;;24.20;;
43793;SDS011;29414;44.798;20.366;2022-12-18T02:37:00;32.17;;;22.33;;
43793;SDS011;29414;44.798;20.366;2022-12-18T02:41:02;35.53;;;24.53;;
43793;SDS011;29414;44.798;20.366;2022-12-18T02:45:03;34.73;;;23.03;;
43793;SDS011;29414;44.798;20.366;2022-12-18T02:49:10;30.83;;;22.80;;
43793;SDS011;29414;44.798;20.366;2022-12-18T03:09:21;35.42;;;24.38;;
43793;SDS011;29414;44.798;20.366;2022-12-18T03:13:39;32.42;;;22.90;;
43793;SDS011;29414;44.798;20.366;2022-12-18T03:17:44;30.83;;;22.53;;
43793;SDS011;29414;44.798;20.366;2022-12-18T03:21:47;32.23;;;21.33;;
43793;SDS011;29414;44.798;20.366;2022-12-18T03:25:47;28.47;;;21.10;;
43793;SDS011;29414;44.798;20.366;2022-12-18T03:29:51;31.23;;;22.87;;
43793;SDS011;29414;44.798;20.366;2022-12-18T03:33:54;32.33;;;22.13;;
43793;SDS011;29414;44.798;20.366;2022-12-18T03:37:55;31.23;;;22.23;;
43793;SDS011;29414;44.798;20.366;2022-12-18T03:41:58;32.30;;;23.13;;
43793;SDS011;29414;44.798;20.366;2022-12-18T03:46:19;32.07;;;21.93;;
43793;SDS011;29414;44.798;20.366;2022-12-18T03:50:31;28.80;;;20.00;;
43793;SDS011;29414;44.798;20.366;2022-12-18T03:54:35;30.20;;;21.37;;
43793;SDS011;29414;44.798;20.366;2022-12-18T03:58:37;29.17;;;20.13;;
43793;SDS011;29414;44.798;20.366;2022-12-18T04:02:39;28.57;;;19.93;;
43793;SDS011;29414;44.798;20.366;2022-12-18T04:06:41;30.77;;;21.10;;
43793;SDS011;29414;44.798;20.366;2022-12-18T04:10:41;31.20;;;20.73;;
43793;SDS011;29414;44.798;20.366;2022-12-18T04:14:42;34.40;;;22.57;;
43793;SDS011;29414;44.798;20.366;2022-12-18T04:18:42;30.87;;;21.00;;
43793;SDS011;29414;44.798;20.366;2022-12-18T04:22:42;34.10;;;22.00;;
43793;SDS011;29414;44.798;20.366;2022-12-18T04:26:43;32.87;;;21.50;;
43793;SDS011;29414;44.798;20.366;2022-12-18T04:30:43;34.17;;;22.07;;
43793;SDS011;29414;44.798;20.366;2022-12-18T04:34:43;31.20;;;21.80;;
43793;SDS011;29414;44.798;20.366;2022-12-18T04:38:43;32.27;;;22.07;;
43793;SDS011;29414;44.798;20.366;2022-12-18T04:42:44;31.53;;;21.03;;
43793;SDS011;29414;44.798;20.366;2022-12-18T04:46:44;31.93;;;21.27;;
43793;SDS011;29414;44.798;20.366;2022-12-18T04:50:45;30.90;;;21.67;;
43793;SDS011;29414;44.798;20.366;2022-12-18T04:54:46;36.43;;;23.33;;
43793;SDS011;29414;44.798;20.366;2022-12-18T04:58:46;35.67;;;23.33;;
43793;SDS011;29414;44.798;20.366;2022-12-18T05:02:47;33.80;;;22.13;;
43793;SDS011;29414;44.798;20.366;2022-12-18T05:06:47;34.57;;;23.50;;
43793;SDS011;29414;44.798;20.366;2022-12-18T05:10:47;29.17;;;21.23;;
43793;SDS011;29414;44.798;20.366;2022-12-18T05:14:47;31.33;;;23.37;;
43793;SDS011;29414;44.798;20.366;2022-12-18T05:18:48;33.97;;;24.10;;
43793;SDS011;29414;44.798;20.366;2022-12-18T05:22:48;34.07;;;22.00;;
43793;SDS011;29414;44.798;20.366;2022-12-18T05:26:48;33.63;;;23.20;;
43793;SDS011;29414;44.798;20.366;2022-12-18T05:30:53;35.57;;;23.97;;
43793;SDS011;29414;44.798;20.366;2022-12-18T05:34:53;33.77;;;22.37;;
43793;SDS011;29414;44.798;20.366;2022-12-18T05:38:54;34.17;;;23.40;;
43793;SDS011;29414;44.798;20.366;2022-12-18T05:42:54;33.70;;;22.73;;
43793;SDS011;29414;44.798;20.366;2022-12-18T05:46:54;36.47;;;24.23;;
43793;SDS011;29414;44.798;20.366;2022-12-18T05:50:55;36.40;;;23.67;;
43793;SDS011;29414;44.798;20.366;2022-12-18T05:54:55;31.43;;;22.70;;
43793;SDS011;29414;44.798;20.366;2022-12-18T05:58:55;35.87;;;25.00;;
43793;SDS011;29414;44.798;20.366;2022-12-18T06:02:55;35.57;;;22.97;;
43793;SDS011;29414;44.798;20.366;2022-12-18T06:06:56;34.93;;;23.73;;
43793;SDS011;29414;44.798;20.366;2022-12-18T06:10:56;36.80;;;23.93;;
43793;SDS011;29414;44.798;20.366;2022-12-18T06:14:56;36.17;;;24.47;;
43793;SDS011;29414;44.798;20.366;2022-12-18T06:19:01;35.70;;;24.80;;
43793;SDS011;29414;44.798;20.366;2022-12-18T06:23:01;36.77;;;25.13;;
43793;SDS011;29414;44.798;20.366;2022-12-18T06:27:02;39.10;;;25.20;;
43793;SDS011;29414;44.798;20.366;2022-12-18T06:31:02;37.47;;;25.37;;
43793;SDS011;29414;44.798;20.366;2022-12-18T06:35:03;38.97;;;25.43;;
43793;SDS011;29414;44.798;20.366;2022-12-18T06:39:03;37.37;;;25.50;;
43793;SDS011;29414;44.798;20.366;2022-12-18T06:43:04;35.13;;;23.33;;
43793;SDS011;29414;44.798;20.366;2022-12-18T06:47:04;33.30;;;22.87;;
43793;SDS011;29414;44.798;20.366;2022-12-18T06:51:04;36.33;;;24.93;;
43793;SDS011;29414;44.798;20.366;2022-12-18T06:55:05;38.53;;;25.73;;
43793;SDS011;29414;44.798;20.366;2022-12-18T06:59:06;39.10;;;26.57;;
43793;SDS011;29414;44.798;20.366;2022-12-18T07:03:06;42.20;;;27.77;;
43793;SDS011;29414;44.798;20.366;2022-12-18T07:07:06;43.33;;;28.73;;
43793;SDS011;29414;44.798;20.366;2022-12-18T07:11:06;40.93;;;27.27;;
43793;SDS011;29414;44.798;20.366;2022-12-18T07:15:07;42.00;;;27.93;;
43793;SDS011;29414;44.798;20.366;2022-12-18T07:19:07;42.70;;;28.70;;
43793;SDS011;29414;44.798;20.366;2022-12-18T07:23:07;41.77;;;27.87;;
43793;SDS011;29414;44.798;20.366;2022-12-18T07:27:08;43.33;;;28.27;;
43793;SDS011;29414;44.798;20.366;2022-12-18T07:31:12;46.63;;;28.27;;
43793;SDS011;29414;44.798;20.366;2022-12-18T07:35:13;43.97;;;28.80;;
43793;SDS011;29414;44.798;20.366;2022-12-18T07:39:13;45.03;;;29.17;;
43793;SDS011;29414;44.798;20.366;2022-12-18T07:43:13;39.37;;;25.47;;
43793;SDS011;29414;44.798;20.366;2022-12-18T07:47:14;39.73;;;26.33;;
43793;SDS011;29414;44.798;20.366;2022-12-18T07:51:14;37.17;;;26.00;;
43793;SDS011;29414;44.798;20.366;2022-12-18T07:55:14;41.67;;;27.47;;
43793;SDS011;29414;44.798;20.366;2022-12-18T07:59:15;40.63;;;29.03;;
43793;SDS011;29414;44.798;20.366;2022-12-18T08:03:15;43.87;;;30.03;;
43793;SDS011;29414;44.798;20.366;2022-12-18T08:07:15;39.03;;;28.40;;
43793;SDS011;29414;44.798;20.366;2022-12-18T08:11:15;42.93;;;28.83;;
43793;SDS011;29414;44.798;20.366;2022-12-18T08:15:16;42.57;;;28.13;;
43793;SDS011;29414;44.798;20.366;2022-12-18T08:19:16;41.07;;;28.43;;
43793;SDS011;29414;44.798;20.366;2022-12-18T08:23:16;40.33;;;27.67;;
43793;SDS011;29414;44.798;20.366;2022-12-18T08:27:17;34.07;;;24.37;;
43793;SDS011;29414;44.798;20.366;2022-12-18T08:31:17;42.47;;;29.67;;
43793;SDS011;29414;44.798;20.366;2022-12-18T08:35:18;36.57;;;28.00;;
43793;SDS011;29414;44.798;20.366;2022-12-18T08:39:18;40.43;;;28.80;;
43793;SDS011;29414;44.798;20.366;2022-12-18T08:43:18;42.73;;;28.50;;
43793;SDS011;29414;44.798;20.366;2022-12-18T08:47:37;40.77;;;28.73;;
43793;SDS011;29414;44.798;20.366;2022-12-18T08:51:37;37.37;;;26.70;;
43793;SDS011;29414;44.798;20.366;2022-12-18T08:55:38;33.87;;;25.73;;
43793;SDS011;29414;44.798;20.366;2022-12-18T08:59:38;36.53;;;26.37;;
43793;SDS011;29414;44.798;20.366;2022-12-18T09:03:39;39.80;;;28.87;;
43793;SDS011;29414;44.798;20.366;2022-12-18T09:07:39;33.90;;;25.10;;
43793;SDS011;29414;44.798;20.366;2022-12-18T09:11:39;39.07;;;29.17;;
43793;SDS011;29414;44.798;20.366;2022-12-18T09:19:43;37.83;;;29.77;;
43793;SDS011;29414;44.798;20.366;2022-12-18T09:23:43;40.43;;;29.23;;
43793;SDS011;29414;44.798;20.366;2022-12-18T09:27:46;38.03;;;28.43;;
43793;SDS011;29414;44.798;20.366;2022-12-18T09:31:47;34.90;;;26.33;;
43793;SDS011;29414;44.798;20.366;2022-12-18T09:35:47;39.07;;;28.20;;
43793;SDS011;29414;44.798;20.366;2022-12-18T09:39:47;41.43;;;30.07;;
43793;SDS011;29414;44.798;20.366;2022-12-18T09:43:49;41.90;;;31.03;;
43793;SDS011;29414;44.798;20.366;2022-12-18T09:47:50;42.00;;;31.47;;
43793;SDS011;29414;44.798;20.366;2022-12-18T09:51:56;41.00;;;31.17;;
43793;SDS011;29414;44.798;20.366;2022-12-18T09:55:57;46.83;;;32.50;;
43793;SDS011;29414;44.798;20.366;2022-12-18T10:00:20;37.03;;;28.13;;
43793;SDS011;29414;44.798;20.366;2022-12-18T10:04:20;41.37;;;30.87;;
43793;SDS011;29414;44.798;20.366;2022-12-18T10:12:46;38.90;;;28.97;;
43793;SDS011;29414;44.798;20.366;2022-12-18T10:20:52;40.53;;;30.20;;
43793;SDS011;29414;44.798;20.366;2022-12-18T10:28:59;38.63;;;28.07;;
43793;SDS011;29414;44.798;20.366;2022-12-18T10:33:00;38.20;;;28.50;;
43793;SDS011;29414;44.798;20.366;2022-12-18T10:37:01;41.37;;;30.27;;
43793;SDS011;29414;44.798;20.366;2022-12-18T10:45:25;39.90;;;30.20;;
43793;SDS011;29414;44.798;20.366;2022-12-18T10:49:26;44.10;;;31.00;;
43793;SDS011;29414;44.798;20.366;2022-12-18T10:53:28;42.27;;;28.57;;
43793;SDS011;29414;44.798;20.366;2022-12-18T10:57:30;45.37;;;32.77;;
43793;SDS011;29414;44.798;20.366;2022-12-18T11:01:44;41.97;;;28.83;;
43793;SDS011;29414;44.798;20.366;2022-12-18T11:05:45;39.17;;;27.97;;
43793;SDS011;29414;44.798;20.366;2022-12-18T11:09:45;44.07;;;29.73;;
43793;SDS011;29414;44.798;20.366;2022-12-18T11:17:59;43.17;;;31.67;;
43793;SDS011;29414;44.798;20.366;2022-12-18T11:22:00;45.70;;;30.87;;
43793;SDS011;29414;44.798;20.366;2022-12-18T11:26:02;43.27;;;29.17;;
43793;SDS011;29414;44.798;20.366;2022-12-18T11:46:52;45.20;;;31.27;;
43793;SDS011;29414;44.798;20.366;2022-12-18T11:50:55;54.45;;;36.53;;
43793;SDS011;29414;44.798;20.366;2022-12-18T11:54:58;47.77;;;32.23;;
43793;SDS011;29414;44.798;20.366;2022-12-18T12:03:18;50.30;;;33.57;;
43793;SDS011;29414;44.798;20.366;2022-12-18T12:11:26;54.45;;;33.42;;
43793;SDS011;29414;44.798;20.366;2022-12-18T12:39:45;49.20;;;34.57;;
43793;SDS011;29414;44.798;20.366;2022-12-18T12:43:46;50.20;;;34.30;;
43793;SDS011;29414;44.798;20.366;2022-12-18T12:47:47;52.33;;;34.87;;
43793;SDS011;29414;44.798;20.366;2022-12-18T12:52:05;51.77;;;34.87;;
43793;SDS011;29414;44.798;20.366;2022-12-18T12:56:06;50.87;;;34.80;;
43793;SDS011;29414;44.798;20.366;2022-12-18T13:00:12;46.73;;;32.40;;
43793;SDS011;29414;44.798;20.366;2022-12-18T13:04:27;50.50;;;34.33;;
43793;SDS011;29414;44.798;20.366;2022-12-18T13:08:31;49.97;;;34.83;;
43793;SDS011;29414;44.798;20.366;2022-12-18T13:12:32;51.10;;;35.40;;
43793;SDS011;29414;44.798;20.366;2022-12-18T13:21:29;53.03;;;35.40;;
43793;SDS011;29414;44.798;20.366;2022-12-18T13:29:51;53.43;;;35.07;;
43793;SDS011;29414;44.798;20.366;2022-12-18T13:33:51;53.40;;;33.67;;
43793;SDS011;29414;44.798;20.366;2022-12-18T13:42:34;49.70;;;34.77;;
43793;SDS011;29414;44.798;20.366;2022-12-18T13:46:55;51.17;;;34.78;;
43793;SDS011;29414;44.798;20.366;2022-12-18T13:50:57;51.43;;;33.47;;
43793;SDS011;29414;44.798;20.366;2022-12-18T13:54:59;53.03;;;34.33;;
43793;SDS011;29414;44.798;20.366;2022-12-18T14:03:18;57.00;;;35.97;;
43793;SDS011;29414;44.798;20.366;2022-12-18T14:07:20;50.38;;;34.53;;
43793;SDS011;29414;44.798;20.366;2022-12-18T14:11:22;55.67;;;35.97;;
43793;SDS011;29414;44.798;20.366;2022-12-18T14:19:26;49.83;;;32.60;;
43793;SDS011;29414;44.798;20.366;2022-12-18T14:23:28;49.20;;;33.00;;
43793;SDS011;29414;44.798;20.366;2022-12-18T14:27:28;50.40;;;34.90;;
43793;SDS011;29414;44.798;20.366;2022-12-18T14:31:29;53.13;;;36.93;;
43793;SDS011;29414;44.798;20.366;2022-12-18T14:35:30;51.83;;;33.73;;
43793;SDS011;29414;44.798;20.366;2022-12-18T14:39:30;49.23;;;33.33;;
43793;SDS011;29414;44.798;20.366;2022-12-18T14:43:34;54.07;;;34.70;;
43793;SDS011;29414;44.798;20.366;2022-12-18T14:47:35;54.73;;;37.33;;
43793;SDS011;29414;44.798;20.366;2022-12-18T14:51:35;56.93;;;37.93;;
43793;SDS011;29414;44.798;20.366;2022-12-18T14:55:36;52.30;;;35.53;;
43793;SDS011;29414;44.798;20.366;2022-12-18T14:59:36;55.53;;;37.37;;
43793;SDS011;29414;44.798;20.366;2022-12-18T15:03:42;51.87;;;33.63;;
43793;SDS011;29414;44.798;20.366;2022-12-18T15:11:46;49.57;;;32.87;;
43793;SDS011;29414;44.798;20.366;2022-12-18T15:15:47;52.73;;;33.40;;
43793;SDS011;29414;44.798;20.366;2022-12-18T15:19:48;50.43;;;34.93;;
43793;SDS011;29414;44.798;20.366;2022-12-18T15:23:49;54.70;;;34.13;;
43793;SDS011;29414;44.798;20.366;2022-12-18T15:27:50;49.40;;;32.83;;
43793;SDS011;29414;44.798;20.366;2022-12-18T15:31:58;51.40;;;33.53;;
43793;SDS011;29414;44.798;20.366;2022-12-18T15:36:00;50.20;;;34.10;;
43793;SDS011;29414;44.798;20.366;2022-12-18T15:40:00;55.10;;;37.50;;
43793;SDS011;29414;44.798;20.366;2022-12-18T15:44:02;55.83;;;36.13;;
43793;SDS011;29414;44.798;20.366;2022-12-18T15:52:45;57.37;;;36.93;;
43793;SDS011;29414;44.798;20.366;2022-12-18T15:56:46;54.23;;;36.13;;
43793;SDS011;29414;44.798;20.366;2022-12-18T16:01:05;58.13;;;36.70;;
43793;SDS011;29414;44.798;20.366;2022-12-18T16:05:09;59.23;;;37.93;;
43793;SDS011;29414;44.798;20.366;2022-12-18T16:09:15;46.40;;;31.17;;
43793;SDS011;29414;44.798;20.366;2022-12-18T16:13:16;62.00;;;39.37;;
43793;SDS011;29414;44.798;20.366;2022-12-18T16:17:19;59.53;;;39.23;;
43793;SDS011;29414;44.798;20.366;2022-12-18T16:21:19;66.60;;;42.63;;
43793;SDS011;29414;44.798;20.366;2022-12-18T16:25:23;64.40;;;42.70;;
43793;SDS011;29414;44.798;20.366;2022-12-18T16:29:24;66.20;;;43.53;;
43793;SDS011;29414;44.798;20.366;2022-12-18T16:33:27;65.10;;;42.87;;
43793;SDS011;29414;44.798;20.366;2022-12-18T16:37:30;62.47;;;39.77;;
43793;SDS011;29414;44.798;20.366;2022-12-18T16:41:30;69.60;;;43.73;;
43793;SDS011;29414;44.798;20.366;2022-12-18T16:45:36;67.77;;;43.00;;
43793;SDS011;29414;44.798;20.366;2022-12-18T16:49:37;70.30;;;43.57;;
43793;SDS011;29414;44.798;20.366;2022-12-18T16:53:37;64.63;;;43.27;;
43793;SDS011;29414;44.798;20.366;2022-12-18T16:57:37;66.00;;;43.63;;
43793;SDS011;29414;44.798;20.366;2022-12-18T17:01:38;66.73;;;44.03;;
43793;SDS011;29414;44.798;20.366;2022-12-18T17:05:38;70.13;;;44.73;;
43793;SDS011;29414;44.798;20.366;2022-12-18T17:09:39;68.37;;;43.83;;
43793;SDS011;29414;44.798;20.366;2022-12-18T17:13:40;70.13;;;45.00;;
43793;SDS011;29414;44.798;20.366;2022-12-18T17:17:43;74.33;;;47.27;;
43793;SDS011;29414;44.798;20.366;2022-12-18T17:21:44;72.60;;;45.73;;
43793;SDS011;29414;44.798;20.366;2022-12-18T17:25:44;71.50;;;48.10;;
43793;SDS011;29414;44.798;20.366;2022-12-18T17:29:45;70.70;;;44.67;;
43793;SDS011;29414;44.798;20.366;2022-12-18T17:33:45;69.93;;;44.30;;
43793;SDS011;29414;44.798;20.366;2022-12-18T17:37:46;70.90;;;45.17;;
43793;SDS011;29414;44.798;20.366;2022-12-18T17:41:47;73.77;;;46.80;;
43793;SDS011;29414;44.798;20.366;2022-12-18T17:45:47;80.30;;;48.73;;
43793;SDS011;29414;44.798;20.366;2022-12-18T17:49:48;80.00;;;52.67;;
43793;SDS011;29414;44.798;20.366;2022-12-18T17:53:48;78.97;;;53.13;;
43793;SDS011;29414;44.798;20.366;2022-12-18T17:57:49;76.63;;;49.63;;
43793;SDS011;29414;44.798;20.366;2022-12-18T18:01:49;79.10;;;48.37;;
43793;SDS011;29414;44.798;20.366;2022-12-18T18:05:56;69.20;;;44.60;;
43793;SDS011;29414;44.798;20.366;2022-12-18T18:09:56;68.60;;;44.50;;
43793;SDS011;29414;44.798;20.366;2022-12-18T18:13:57;71.43;;;42.87;;
43793;SDS011;29414;44.798;20.366;2022-12-18T18:18:00;74.67;;;46.23;;
43793;SDS011;29414;44.798;20.366;2022-12-18T18:22:00;75.43;;;47.00;;
43793;SDS011;29414;44.798;20.366;2022-12-18T18:26:02;78.37;;;48.37;;
43793;SDS011;29414;44.798;20.366;2022-12-18T18:30:02;78.53;;;49.27;;
43793;SDS011;29414;44.798;20.366;2022-12-18T18:34:03;75.73;;;47.30;;
43793;SDS011;29414;44.798;20.366;2022-12-18T18:38:03;72.03;;;47.20;;
43793;SDS011;29414;44.798;20.366;2022-12-18T18:42:04;71.30;;;47.13;;
43793;SDS011;29414;44.798;20.366;2022-12-18T18:46:04;66.77;;;43.47;;
43793;SDS011;29414;44.798;20.366;2022-12-18T18:50:05;78.70;;;47.80;;
43793;SDS011;29414;44.798;20.366;2022-12-18T18:54:06;82.10;;;52.33;;
43793;SDS011;29414;44.798;20.366;2022-12-18T18:58:06;84.80;;;52.97;;
43793;SDS011;29414;44.798;20.366;2022-12-18T19:02:08;83.17;;;52.57;;
43793;SDS011;29414;44.798;20.366;2022-12-18T19:06:11;86.60;;;53.97;;
43793;SDS011;29414;44.798;20.366;2022-12-18T19:10:12;84.47;;;53.57;;
43793;SDS011;29414;44.798;20.366;2022-12-18T19:14:13;82.27;;;54.53;;
43793;SDS011;29414;44.798;20.366;2022-12-18T19:18:14;79.30;;;51.10;;
43793;SDS011;29414;44.798;20.366;2022-12-18T19:22:15;72.23;;;45.57;;
43793;SDS011;29414;44.798;20.366;2022-12-18T19:26:15;65.47;;;43.10;;
43793;SDS011;29414;44.798;20.366;2022-12-18T19:30:16;73.77;;;47.67;;
43793;SDS011;29414;44.798;20.366;2022-12-18T19:34:16;68.07;;;42.30;;
43793;SDS011;29414;44.798;20.366;2022-12-18T19:38:16;67.33;;;42.60;;
43793;SDS011;29414;44.798;20.366;2022-12-18T19:42:17;64.97;;;39.97;;
43793;SDS011;29414;44.798;20.366;2022-12-18T19:46:18;69.07;;;43.57;;
43793;SDS011;29414;44.798;20.366;2022-12-18T19:50:19;72.47;;;42.90;;
43793;SDS011;29414;44.798;20.366;2022-12-18T19:54:19;68.70;;;42.60;;
43793;SDS011;29414;44.798;20.366;2022-12-18T19:58:19;75.13;;;45.10;;
43793;SDS011;29414;44.798;20.366;2022-12-18T20:02:20;71.93;;;45.43;;
43793;SDS011;29414;44.798;20.366;2022-12-18T20:06:25;69.63;;;44.07;;
43793;SDS011;29414;44.798;20.366;2022-12-18T20:10:26;70.83;;;43.93;;
43793;SDS011;29414;44.798;20.366;2022-12-18T20:14:26;70.70;;;45.37;;
43793;SDS011;29414;44.798;20.366;2022-12-18T20:18:26;76.17;;;46.60;;
43793;SDS011;29414;44.798;20.366;2022-12-18T20:22:27;70.07;;;44.90;;
43793;SDS011;29414;44.798;20.366;2022-12-18T20:26:27;72.23;;;44.37;;
43793;SDS011;29414;44.798;20.366;2022-12-18T20:30:27;76.70;;;46.93;;
43793;SDS011;29414;44.798;20.366;2022-12-18T20:34:28;75.13;;;46.73;;
43793;SDS011;29414;44.798;20.366;2022-12-18T20:38:28;77.03;;;49.13;;
43793;SDS011;29414;44.798;20.366;2022-12-18T20:42:29;81.13;;;51.20;;
43793;SDS011;29414;44.798;20.366;2022-12-18T20:46:29;79.93;;;50.70;;
43793;SDS011;29414;44.798;20.366;2022-12-18T20:50:29;80.93;;;50.80;;
43793;SDS011;29414;44.798;20.366;2022-12-18T20:54:30;80.33;;;49.57;;
43793;SDS011;29414;44.798;20.366;2022-12-18T20:58:33;75.27;;;48.50;;
43793;SDS011;29414;44.798;20.366;2022-12-18T21:02:41;76.07;;;49.17;;
43793;SDS011;29414;44.798;20.366;2022-12-18T21:06:41;75.60;;;47.60;;
43793;SDS011;29414;44.798;20.366;2022-12-18T21:10:44;73.40;;;45.67;;
43793;SDS011;29414;44.798;20.366;2022-12-18T21:14:45;75.40;;;47.23;;
43793;SDS011;29414;44.798;20.366;2022-12-18T21:18:45;74.87;;;47.83;;
43793;SDS011;29414;44.798;20.366;2022-12-18T21:22:45;78.33;;;46.57;;
43793;SDS011;29414;44.798;20.366;2022-12-18T21:26:48;73.40;;;48.53;;
43793;SDS011;29414;44.798;20.366;2022-12-18T21:30:48;75.30;;;45.20;;
43793;SDS011;29414;44.798;20.366;2022-12-18T21:34:49;77.17;;;46.37;;
43793;SDS011;29414;44.798;20.366;2022-12-18T21:38:53;73.87;;;46.33;;
43793;SDS011;29414;44.798;20.366;2022-12-18T21:42:53;76.40;;;47.63;;
43793;SDS011;29414;44.798;20.366;2022-12-18T21:47:12;77.93;;;48.03;;
43793;SDS011;29414;44.798;20.366;2022-12-18T21:51:15;79.10;;;47.20;;
43793;SDS011;29414;44.798;20.366;2022-12-18T21:55:15;78.10;;;47.90;;
43793;SDS011;29414;44.798;20.366;2022-12-18T21:59:17;77.93;;;48.50;;
43793;SDS011;29414;44.798;20.366;2022-12-18T22:03:18;72.03;;;47.27;;
43793;SDS011;29414;44.798;20.366;2022-12-18T22:07:18;76.37;;;48.37;;
43793;SDS011;29414;44.798;20.366;2022-12-18T22:11:19;77.27;;;45.37;;
43793;SDS011;29414;44.798;20.366;2022-12-18T22:15:19;76.43;;;48.90;;
43793;SDS011;29414;44.798;20.366;2022-12-18T22:19:22;76.20;;;47.87;;
43793;SDS011;29414;44.798;20.366;2022-12-18T22:23:23;74.13;;;46.73;;
43793;SDS011;29414;44.798;20.366;2022-12-18T22:27:24;75.33;;;46.50;;
43793;SDS011;29414;44.798;20.366;2022-12-18T22:31:24;73.67;;;45.33;;
43793;SDS011;29414;44.798;20.366;2022-12-18T22:35:24;71.03;;;44.03;;
43793;SDS011;29414;44.798;20.366;2022-12-18T22:39:25;73.17;;;45.27;;
43793;SDS011;29414;44.798;20.366;2022-12-18T22:43:41;69.53;;;43.47;;
43793;SDS011;29414;44.798;20.366;2022-12-18T22:47:42;70.47;;;43.60;;
43793;SDS011;29414;44.798;20.366;2022-12-18T22:51:42;68.30;;;43.50;;
43793;SDS011;29414;44.798;20.366;2022-12-18T22:55:43;64.07;;;40.87;;
43793;SDS011;29414;44.798;20.366;2022-12-18T22:59:46;71.53;;;43.60;;
43793;SDS011;29414;44.798;20.366;2022-12-18T23:03:46;76.20;;;44.10;;
43793;SDS011;29414;44.798;20.366;2022-12-18T23:07:46;71.23;;;43.83;;
43793;SDS011;29414;44.798;20.366;2022-12-18T23:11:47;74.80;;;46.57;;
43793;SDS011;29414;44.798;20.366;2022-12-18T23:15:47;69.30;;;44.30;;
43793;SDS011;29414;44.798;20.366;2022-12-18T23:19:47;72.10;;;45.20;;
43793;SDS011;29414;44.798;20.366;2022-12-18T23:23:48;69.77;;;43.77;;
43793;SDS011;29414;44.798;20.366;2022-12-18T23:27:48;68.13;;;44.13;;
43793;SDS011;29414;44.798;20.366;2022-12-18T23:31:52;70.53;;;44.23;;
43793;SDS011;29414;44.798;20.366;2022-12-18T23:35:56;78.23;;;46.97;;
43793;SDS011;29414;44.798;20.366;2022-12-18T23:39:56;78.33;;;45.60;;
43793;SDS011;29414;44.798;20.366;2022-12-18T23:43:57;75.70;;;46.40;;
43793;SDS011;29414;44.798;20.366;2022-12-18T23:47:57;75.87;;;48.67;;
43793;SDS011;29414;44.798;20.366;2022-12-18T23:51:58;74.40;;;46.40;;
43793;SDS011;29414;44.798;20.366;2022-12-18T23:55:58;83.23;;;49.53;;
43793;SDS011;29414;44.798;20.366;2022-12-18T23:59:58;79.10;;;48.60;;
